Latest Weather Observations for Taree Airport

IDN60801

Issued at 12:35 pm EDT Sunday 26 October 2014 (issued every 30 minutes, with the page automatically refreshed every 10 minutes)

About weather observations | Map of weather stations | Latest weather observations for NSW | Other Formats
Station Details ID: 060141 Name: TAREE AIRPORT AWS Lat: -31.89 Lon: 152.51 Height: 8.0 m
Data from the previous 72 hours. | See also: Recent months at Taree Airport
Date/Time
EDT
Temp
°C
App
Temp
°C
Dew
Point
Rel
Hum
%
Delta-T
°C
Wind Press
QNH
hPa
Press
MSL
hPa
Rain
since 9 am
mm
Dir
 
Spd
km/h
Gust
km/h
Spd
kts
Gust
kts
26/12:30pm 33.5 34.7 16.8 36 10.6 E 6 15 3 8 1008.4 1008.4 0.0
26/12:00pm 32.4 34.7 16.7 39 9.9 ENE 0 7 0 4 1009.1 1009.1 0.0
26/11:30am 31.1 32.6 16.7 42 9.1 N 4 11 2 6 1009.8 1009.8 0.0
26/11:00am 29.6 31.9 16.8 46 8.0 CALM 0 6 0 3 1010.3 1010.3 0.0
26/10:30am 27.7 29.8 17.2 52 6.6 ESE 2 11 1 6 1010.8 1010.8 0.0
26/10:00am 26.2 28.5 16.7 56 5.9 CALM 0 0 0 0 1011.3 1011.3 0.0
26/09:30am 24.8 26.7 16.8 61 4.9 NE 2 9 1 5 1011.6 1011.6 0.0
26/09:00am 23.3 24.2 16.6 66 4.1 N 7 11 4 6 1011.7 1011.7 0.0
26/08:30am 21.8 22.7 16.7 73 3.1 N 7 9 4 5 1012.1 1012.1 0.0
26/08:00am 20.9 22.3 17.9 83 1.9 N 7 11 4 6 1012.3 1012.3 0.0
26/07:30am 19.6 21.0 17.7 89 1.2 NNW 7 9 4 5 1012.6 1012.6 0.0
26/07:00am 19.0 20.0 17.7 92 0.8 NW 9 9 5 5 1013.0 1013.0 0.0
26/06:30am 18.1 19.3 16.8 92 0.8 WNW 6 7 3 4 1012.9 1012.9 0.0
26/06:00am 18.7 19.8 17.0 90 1.0 NNW 7 9 4 5 1013.0 1013.0 0.0
26/05:30am 18.7 19.5 17.2 91 0.9 WNW 9 11 5 6 1013.3 1013.3 0.0
26/05:00am 18.1 18.2 16.4 90 1.0 ENE 11 15 6 8 1012.8 1012.8 0.0
26/04:30am 19.0 21.2 17.5 91 0.9 N 2 11 1 6 1013.8 1013.8 0.0
26/04:00am 18.9 20.9 16.9 88 1.2 N 2 6 1 3 1014.1 1014.1 0.0
26/03:30am 19.2 19.0 16.8 86 1.4 SSE 13 22 7 12 1014.3 1014.3 0.0
26/03:00am 19.3 18.5 16.0 81 2.0 S 15 24 8 13 1014.7 1014.7 0.0
26/02:30am 18.2 17.7 16.0 87 1.3 SW 13 28 7 15 1014.2 1014.2 0.0
26/02:00am 18.2 19.0 16.4 89 1.1 S 7 11 4 6 1014.1 1014.1 0.0
26/01:30am 17.3 17.1 15.6 90 1.0 ENE 11 15 6 8 1013.7 1013.7 0.0
26/01:00am 18.0 19.7 16.2 89 1.1 SSE 2 7 1 4 1013.9 1013.9 0.0
26/12:30am 18.0 18.2 15.8 87 1.3 S 9 9 5 5 1014.3 1014.3 0.0
26/12:00am 18.0 19.3 15.1 83 1.7 NNE 2 7 1 4 1014.4 1014.4 0.0
 
Date/Time
EDT
Temp
°C
App
Temp
°C
Dew
Point
Rel
Hum
%
Delta-T
°C
Wind Press
QNH
hPa
Press
MSL
hPa
Rain
since 9 am
mm
Dir
 
Spd
km/h
Gust
km/h
Spd
kts
Gust
kts
25/11:30pm 18.8 18.5 15.5 81 1.9 NNW 11 13 6 7 1014.4 1014.4 0.0
25/11:00pm 19.2 20.5 16.1 82 1.8 NNE 4 7 2 4 1015.4 1015.4 0.0
25/10:30pm 20.4 21.0 15.8 75 2.7 SSE 7 9 4 5 1016.0 1016.0 0.0
25/10:00pm 20.4 20.5 16.6 79 2.3 W 11 15 6 8 1016.0 1016.0 0.0
25/09:30pm 20.1 22.1 16.1 78 2.4 CALM 0 0 0 0 1015.6 1015.6 0.0
25/09:00pm 20.4 22.7 16.8 80 2.2 CALM 0 0 0 0 1015.3 1015.3 0.0
25/08:30pm 20.1 21.9 15.5 75 2.7 CALM 0 0 0 0 1014.8 1014.8 0.0
25/08:00pm 21.1 22.9 15.6 71 3.3 CALM 0 0 0 0 1014.5 1014.5 0.0
25/07:30pm 22.6 24.6 15.9 66 4.0 CALM 0 0 0 0 1014.4 1014.4 0.0
25/07:00pm 23.5 24.9 15.3 60 4.9 S 2 6 1 3 1014.1 1014.1 0.0
25/06:30pm 23.5 23.4 15.0 59 5.1 SE 9 13 5 7 1014.0 1014.0 0.0
25/06:00pm 24.6 23.8 15.2 55 5.6 SE 13 19 7 10 1013.7 1013.7 0.0
25/05:30pm 25.4 23.6 14.5 51 6.5 SE 17 24 9 13 1013.3 1013.3 0.0
25/05:00pm 26.0 23.8 14.5 49 6.9 ESE 19 26 10 14 1012.9 1012.9 0.0
25/04:30pm 26.7 24.5 14.8 48 7.2 SE 20 26 11 14 1012.7 1012.7 0.0
25/04:00pm 26.8 24.3 14.2 46 7.5 SE 20 28 11 15 1012.7 1012.7 0.0
25/03:30pm 28.4 26.9 15.3 45 8.0 SE 17 26 9 14 1012.6 1012.6 0.0
25/03:00pm 29.2 27.9 15.7 44 8.3 SE 17 20 9 11 1012.7 1012.7 0.0
25/02:30pm 29.6 29.3 16.4 45 8.2 ESE 13 17 7 9 1012.9 1012.9 0.0
25/02:00pm 28.9 28.2 15.4 44 8.3 ESE 13 19 7 10 1013.3 1013.3 0.0
25/01:30pm 28.8 27.7 16.4 47 7.7 E 17 20 9 11 1013.5 1013.5 0.0
25/01:00pm 28.7 27.9 17.2 49 7.2 ESE 17 22 9 12 1013.7 1013.7 0.0
25/12:30pm 27.7 27.6 17.8 54 6.3 ESE 15 20 8 11 1014.0 1014.0 0.0
25/12:00pm 28.1 28.8 17.9 54 6.5 E 11 15 6 8 1014.2 1014.2 0.0
25/11:30am 27.6 28.1 18.3 57 5.9 E 13 15 7 8 1014.6 1014.6 0.0
25/11:00am 27.1 27.7 18.7 60 5.4 E 13 17 7 9 1014.7 1014.7 0.0
25/10:30am 27.0 27.7 18.8 60 5.3 E 13 17 7 9 1014.8 1014.8 0.0
25/10:00am 26.1 27.4 17.5 59 5.4 SE 7 13 4 7 1014.8 1014.8 0.0
25/09:30am 24.9 25.6 17.9 65 4.4 SSE 11 13 6 7 1014.7 1014.7 0.0
25/09:00am 23.1 24.4 17.6 71 3.4 SSE 7 9 4 5 1014.6 1014.6 -
25/08:30am 21.7 23.1 17.7 78 2.5 SE 7 9 4 5 1014.3 1014.3 -
25/08:00am 20.2 22.5 17.6 85 1.6 E 2 6 1 3 1014.0 1014.0 -
25/07:30am 18.7 21.5 18.0 96 0.4 CALM 0 0 0 0 1013.7 1013.7 -
25/07:00am 17.2 19.6 17.0 99 0.1 CALM 0 0 0 0 1013.5 1013.5 -
25/06:30am 16.3 18.3 16.1 99 0.1 CALM 0 0 0 0 1013.2 1013.2 -
25/06:00am 15.5 17.1 15.0 97 0.3 CALM 0 0 0 0 1013.1 1013.1 -
25/05:30am 15.8 17.5 15.3 97 0.3 CALM 0 0 0 0 1012.8 1012.8 -
25/05:00am 17.0 19.2 16.4 96 0.4 CALM 0 0 0 0 1013.0 1013.0 -
25/04:30am 17.2 19.3 16.2 94 0.6 CALM 0 0 0 0 1013.0 1013.0 -
25/04:00am 17.6 18.7 16.6 94 0.6 SSE 6 7 3 4 1012.9 1012.9 -
25/03:30am 18.1 19.7 16.8 92 0.8 W 4 9 2 5 1012.9 1012.9 -
25/03:00am 18.1 19.1 16.4 90 1.0 NNE 6 9 3 5 1013.2 1013.2 1.0
25/02:30am 18.6 19.6 16.8 89 1.1 N 7 13 4 7 1013.6 1013.6 -
25/02:00am 18.7 19.0 17.0 90 1.0 NNE 11 19 6 10 1013.9 1013.9 -
25/01:30am 18.7 17.4 17.2 91 0.9 ENE 20 32 11 17 1013.7 1013.7 -
25/01:27am 18.7 17.6 17.2 91 0.9 ENE 19 26 10 14 1014.3 1014.3 -
25/01:00am 19.0 19.7 17.1 89 1.1 E 9 13 5 7 1016.3 1016.3 -
25/12:30am 19.4 19.3 17.0 86 1.5 S 13 17 7 9 1016.2 1016.2 -
25/12:00am 20.2 19.8 16.2 78 2.4 NE 13 20 7 11 1014.8 1014.8 -
 
Date/Time
EDT
Temp
°C
App
Temp
°C
Dew
Point
Rel
Hum
%
Delta-T
°C
Wind Press
QNH
hPa
Press
MSL
hPa
Rain
since 9 am
mm
Dir
 
Spd
km/h
Gust
km/h
Spd
kts
Gust
kts
24/11:30pm 20.2 19.0 16.2 78 2.4 NE 17 28 9 15 1014.4 1014.4 -
24/11:00pm 20.3 18.8 16.3 78 2.4 NE 19 28 10 15 1014.9 1014.9 -
24/10:30pm 19.9 19.2 16.3 80 2.2 NE 15 22 8 12 1015.3 1015.3 -
24/10:00pm 19.8 18.7 16.3 80 2.1 NE 17 26 9 14 1015.7 1015.7 -
24/09:30pm 19.9 19.5 16.2 79 2.2 NE 13 17 7 9 1016.1 1016.1 -
24/09:00pm 20.8 19.6 16.2 75 2.8 NE 17 28 9 15 1016.2 1016.2 -
24/08:30pm 21.0 20.6 16.2 74 2.9 NE 13 19 7 10 1016.1 1016.1 -
24/08:00pm 21.4 20.3 16.4 73 3.0 NE 17 28 9 15 1015.8 1015.8 -
24/07:30pm 22.0 20.6 16.5 71 3.3 NE 19 28 10 15 1015.6 1015.6 -
24/07:00pm 22.6 21.6 16.6 69 3.7 NE 17 28 9 15 1015.5 1015.5 -
24/06:30pm 23.4 21.4 16.4 64 4.3 NE 22 33 12 18 1015.4 1015.4 -
24/06:00pm 24.5 21.8 16.7 61 4.8 NE 26 35 14 19 1015.3 1015.3 -
24/05:30pm 25.3 22.9 16.4 57 5.5 NE 24 33 13 18 1015.3 1015.3 -
24/05:00pm 25.9 23.2 16.5 56 5.8 ENE 26 35 14 19 1015.5 1015.5 -
24/04:30pm 25.6 22.2 16.7 58 5.5 ENE 30 37 16 20 1015.8 1015.8 -
24/04:00pm 25.5 22.5 16.9 59 5.3 ENE 28 35 15 19 1016.2 1016.2 -
24/03:30pm 25.5 21.7 16.6 58 5.5 ENE 32 37 17 20 1016.5 1016.5 0.0
24/03:00pm 26.0 23.2 17.4 59 5.4 ENE 28 37 15 20 1016.7 1016.7 0.0
24/02:30pm 24.8 23.2 16.5 60 5.1 E 20 32 11 17 1017.0 1017.0 0.0
24/02:00pm 25.9 23.5 16.5 56 5.8 E 24 35 13 19 1017.4 1017.4 0.0
24/01:30pm 28.3 28.2 17.8 53 6.7 E 15 24 8 13 1017.9 1017.9 0.0
24/01:00pm 27.8 27.9 16.4 50 7.1 NNE 11 19 6 10 1018.5 1018.5 0.0
24/12:30pm 27.1 27.8 17.0 54 6.3 NE 9 17 5 9 1018.8 1018.8 0.0
24/12:00pm 26.2 26.1 15.9 53 6.3 N 11 17 6 9 1019.2 1019.2 0.0
24/11:30am 25.0 24.8 15.6 56 5.7 NNE 11 19 6 10 1019.8 1019.8 0.0
24/11:00am 24.7 25.1 16.2 59 5.2 N 9 17 5 9 1020.2 1020.2 0.0
24/10:30am 23.5 24.1 15.8 62 4.7 N 7 13 4 7 1020.5 1020.5 0.0
24/10:00am 22.8 22.6 16.6 68 3.8 NE 13 22 7 12 1020.6 1020.6 0.0
24/09:30am 21.9 22.0 16.4 71 3.3 NNE 11 17 6 9 1021.0 1021.0 0.0
24/09:00am 20.5 20.3 14.8 70 3.3 N 9 11 5 6 1021.4 1021.4 0.0
24/08:30am 18.1 17.7 14.0 77 2.3 NW 9 11 5 6 1021.6 1021.6 0.0
24/08:00am 16.8 16.3 13.7 82 1.7 W 9 11 5 6 1021.6 1021.6 0.0
24/07:30am 16.0 17.7 15.2 95 0.5 CALM 0 0 0 0 1021.3 1021.3 0.0
24/07:00am 14.5 14.4 14.0 97 0.3 WSW 7 11 4 6 1021.0 1021.0 0.0
24/06:30am 13.6 13.9 13.3 98 0.2 W 4 7 2 4 1020.3 1020.3 0.0
24/06:00am 13.6 13.5 13.3 98 0.2 NNW 6 7 3 4 1019.9 1019.9 0.0
24/05:30am 13.8 13.7 13.3 97 0.3 SW 6 9 3 5 1019.5 1019.5 0.0
24/05:00am 13.9 15.0 13.4 97 0.3 CALM 0 0 0 0 1019.0 1019.0 0.0
24/04:30am 14.3 15.5 13.8 97 0.3 CALM 0 0 0 0 1018.9 1018.9 0.0
24/04:00am 14.4 15.6 13.9 97 0.3 CALM 0 0 0 0 1018.7 1018.7 0.0
24/03:30am 14.0 14.6 13.2 95 0.4 WNW 2 7 1 4 1018.7 1018.7 0.0
24/03:00am 14.7 16.0 14.2 97 0.3 CALM 0 0 0 0 1018.7 1018.7 0.0
24/02:30am 13.9 14.8 13.0 94 0.5 CALM 0 0 0 0 1018.8 1018.8 0.0
24/02:00am 14.7 16.0 14.1 96 0.3 CALM 0 0 0 0 1019.1 1019.1 0.0
24/01:30am 15.1 16.4 14.1 94 0.6 CALM 0 0 0 0 1019.2 1019.2 0.0
24/01:00am 15.6 17.0 14.3 92 0.7 CALM 0 0 0 0 1019.3 1019.3 0.0
24/12:30am 16.5 18.1 15.0 91 0.9 CALM 0 0 0 0 1019.4 1019.4 0.0
24/12:00am 16.4 16.9 15.1 92 0.8 ESE 6 9 3 5 1019.4 1019.4 0.0
 
Date/Time
EDT
Temp
°C
App
Temp
°C
Dew
Point
Rel
Hum
%
Delta-T
°C
Wind Press
QNH
hPa
Press
MSL
hPa
Rain
since 9 am
mm
Dir
 
Spd
km/h
Gust
km/h
Spd
kts
Gust
kts
23/11:30pm 16.1 16.3 14.8 92 0.7 ENE 7 9 4 5 1019.3 1019.3 0.0
23/11:00pm 16.4 17.2 14.8 90 0.9 SE 4 7 2 4 1019.3 1019.3 0.0
23/10:30pm 17.2 19.0 15.4 89 1.1 CALM 0 7 0 4 1019.4 1019.4 0.0
23/10:00pm 17.9 19.6 16.1 89 1.1 SW 2 9 1 5 1019.3 1019.3 0.0
23/09:30pm 17.8 18.9 15.6 87 1.3 E 4 7 2 4 1018.8 1018.8 0.0
23/09:00pm 18.2 18.7 15.6 85 1.5 NE 7 9 4 5 1018.2 1018.2 0.0
23/08:30pm 18.8 19.4 15.9 83 1.7 ENE 7 9 4 5 1018.3 1018.3 0.0
23/08:00pm 19.5 20.3 15.8 79 2.2 E 6 9 3 5 1018.0 1018.0 0.0
23/07:30pm 20.5 21.1 15.9 75 2.7 E 7 9 4 5 1017.7 1017.7 0.0
23/07:00pm 22.0 22.1 15.6 67 3.8 ESE 9 13 5 7 1017.1 1017.1 0.0
23/06:30pm 23.5 23.0 15.0 59 5.1 E 11 15 6 8 1016.5 1016.5 0.0
23/06:00pm 24.8 23.6 14.0 51 6.4 E 13 15 7 8 1016.0 1016.0 0.0
23/05:30pm 25.2 23.7 14.3 50 6.5 E 15 22 8 12 1015.8 1015.8 0.0
23/05:00pm 25.7 23.7 13.9 48 7.0 ENE 17 24 9 13 1015.7 1015.7 0.0
23/04:30pm 26.4 25.3 15.4 50 6.7 E 15 22 8 12 1015.4 1015.4 0.0
23/04:00pm 26.4 24.8 15.1 49 6.8 E 17 22 9 12 1015.2 1015.2 0.0
23/03:30pm 26.1 24.0 14.6 49 6.9 E 19 26 10 14 1015.3 1015.3 0.0
23/03:00pm 26.3 25.0 15.7 52 6.5 E 17 22 9 12 1015.5 1015.5 0.0
23/02:30pm 26.8 25.6 16.1 52 6.6 E 17 24 9 13 1015.6 1015.6 0.0
23/02:00pm 27.5 27.2 17.4 54 6.3 E 15 22 8 12 1016.0 1016.0 0.0
23/01:30pm 27.7 28.0 16.9 51 6.7 E 11 17 6 9 1016.3 1016.3 0.0
23/01:00pm 27.6 27.2 15.3 47 7.5 ESE 11 15 6 8 1016.6 1016.6 0.0

Other Formats:

Comma delimited format used in spreadsheet applications
http://www.bom.gov.au/fwo/IDN60801/IDN60801.95784.axf

JavaScript Object Notation format (JSON) in row-major order
http://www.bom.gov.au/fwo/IDN60801/IDN60801.95784.json